Saint-Charles-Sur-Richelieu, Canada
Current Conditions -  °F | °C
As of 6:00 AM on Friday 19 Dec 2014 (Local Time) from CYHU Reporting Station
Overcast Overcast  
Wind Chill: -7°   Ceiling: 2300
Heat Index: -3°   Visibility: 9mi
Dew Point: -7°   Wind: 6mph
Humidity: 74%   Direction: 330°NNW
Pressure: 29.99"   Gusts: NA
Location:  45.68°N, 73.18°W
Report Text: CYHU 191100Z AUTO 33005KT 9SM OVC023 M03/M07 A2999 RMK SLP158
Loading
Personal Weather Stations






























Interactive Weather Map New forecast layout! Learn more

10-Day Weather Forecast

Advertisements
Track Severe Weather on mobile